createdAt,value
2022-10-25T00:01:52.190Z,98380.81
2022-10-25T00:06:51.253Z,98386.16
2022-10-25T00:09:19.525Z,98380.81
2022-10-25T00:11:47.820Z,98381.81
2022-10-25T00:14:19.102Z,98382.41
2022-10-25T00:16:47.526Z,98385.81
2022-10-25T00:19:15.749Z,98378.13
2022-10-25T00:21:44.037Z,98388.22
2022-10-25T00:24:14.747Z,98378.28
2022-10-25T00:26:43.042Z,98379.56
2022-10-25T00:29:12.226Z,98379.16
2022-10-25T00:31:40.643Z,98375.91
2022-10-25T00:34:08.932Z,98372.50
2022-10-25T00:36:37.371Z,98375.13
2022-10-25T00:39:05.799Z,98372.97
2022-10-25T00:41:36.462Z,98370.63
2022-10-25T00:44:46.553Z,98372.53
2022-10-25T00:47:27.869Z,98376.63
2022-10-25T00:50:02.419Z,98380.31
2022-10-25T00:52:37.225Z,98382.38
2022-10-25T00:55:07.758Z,98384.78
2022-10-25T00:57:43.521Z,98381.28
2022-10-25T01:00:13.486Z,98388.31
2022-10-25T01:02:41.881Z,98379.63
2022-10-25T01:05:11.958Z,98383.13
2022-10-25T01:07:40.634Z,98380.88
2022-10-25T01:10:09.425Z,98374.06
2022-10-25T01:12:38.992Z,98384.06
2022-10-25T01:15:08.885Z,98389.22
2022-10-25T01:17:49.149Z,98386.31
2022-10-25T01:20:46.784Z,98376.63
2022-10-25T01:23:53.018Z,98376.13
2022-10-25T01:26:57.151Z,98373.94
2022-10-25T01:30:05.910Z,98375.13
2022-10-25T01:32:46.564Z,98374.88
2022-10-25T01:35:24.078Z,98375.69
2022-10-25T01:38:07.741Z,98369.13
2022-10-25T01:40:48.184Z,98369.69
2022-10-25T01:43:27.997Z,98372.44
2022-10-25T01:46:05.380Z,98370.91
2022-10-25T01:48:40.678Z,98376.47
2022-10-25T01:51:12.685Z,98380.66
2022-10-25T01:53:47.514Z,98381.50
2022-10-25T01:56:24.930Z,98380.97
2022-10-25T01:59:24.053Z,98393.31
2022-10-25T02:02:04.190Z,98391.81
2022-10-25T02:04:46.699Z,98388.31
2022-10-25T02:07:24.632Z,98385.47
2022-10-25T02:12:43.290Z,98379.47
2022-10-25T02:15:18.078Z,98378.81
2022-10-25T02:17:53.610Z,98382.16
2022-10-25T02:20:25.715Z,98378.13
2022-10-25T02:22:55.132Z,98377.38
2022-10-25T02:25:23.840Z,98373.31
2022-10-25T02:27:54.758Z,98374.28
2022-10-25T02:30:23.172Z,98373.47
2022-10-25T02:32:52.010Z,98373.63
2022-10-25T02:35:21.900Z,98376.09
2022-10-25T02:37:50.287Z,98379.75
2022-10-25T02:44:38.254Z,98372.84
2022-10-25T02:47:06.511Z,98369.59
2022-10-25T02:49:34.734Z,98368.94
2022-10-25T02:52:04.569Z,98365.59
2022-10-25T02:54:32.786Z,98366.13
2022-10-25T02:57:01.156Z,98364.75
2022-10-25T02:59:29.606Z,98359.59
2022-10-25T03:01:57.879Z,98362.28
2022-10-25T03:04:26.227Z,98360.69
2022-10-25T03:06:54.757Z,98353.75
2022-10-25T03:09:24.582Z,98358.91
2022-10-25T03:11:52.842Z,98359.69
2022-10-25T03:14:21.071Z,98352.84
2022-10-25T03:16:49.270Z,98360.34
2022-10-25T03:19:17.599Z,98365.44
2022-10-25T03:21:45.870Z,98361.50
2022-10-25T03:24:14.181Z,98362.28
2022-10-25T03:26:43.740Z,98369.34
2022-10-25T03:29:12.125Z,98377.97
2022-10-25T03:31:40.503Z,98373.22
2022-10-25T03:34:08.838Z,98374.97
2022-10-25T03:36:37.082Z,98371.31
2022-10-25T03:39:05.473Z,98380.06
2022-10-25T03:41:33.761Z,98381.88
2022-10-25T03:44:03.546Z,98388.94
2022-10-25T03:46:31.763Z,98380.22
2022-10-25T03:48:59.996Z,98384.63
2022-10-25T03:51:28.293Z,98390.03
2022-10-25T03:53:56.516Z,98389.09
2022-10-25T03:56:24.784Z,98385.38
2022-10-25T03:58:53.347Z,98377.56
2022-10-25T04:01:23.072Z,98382.72
2022-10-25T04:03:51.454Z,98384.72
2022-10-25T04:06:19.715Z,98396.06
2022-10-25T04:08:47.975Z,98391.47
2022-10-25T04:11:16.263Z,98393.72
2022-10-25T04:13:44.471Z,98395.22
2022-10-25T04:16:14.761Z,98393.09
2022-10-25T04:18:47.828Z,98398.44
2022-10-25T04:21:16.068Z,98398.25
2022-10-25T04:23:44.376Z,98394.00
2022-10-25T04:26:14.466Z,98391.41
2022-10-25T04:28:42.744Z,98384.59
2022-10-25T04:31:11.120Z,98396.75
2022-10-25T04:33:39.346Z,98398.75
2022-10-25T04:38:58.581Z,98389.75
2022-10-25T04:41:26.995Z,98393.25
2022-10-25T04:43:55.325Z,98396.31
2022-10-25T04:46:24.022Z,98389.25
2022-10-25T04:48:52.298Z,98399.47
2022-10-25T04:51:22.238Z,98394.00
2022-10-25T04:53:50.465Z,98397.41
2022-10-25T04:56:18.747Z,98393.41
2022-10-25T04:58:47.053Z,98396.16
2022-10-25T05:01:18.589Z,98400.56
2022-10-25T05:03:47.397Z,98405.03
2022-10-25T05:06:18.132Z,98414.38
2022-10-25T05:08:50.436Z,98404.19
2022-10-25T05:11:21.680Z,98409.56
2022-10-25T05:13:50.273Z,98406.03
2022-10-25T05:16:23.271Z,98418.38
2022-10-25T05:18:54.312Z,98414.09
2022-10-25T05:21:23.177Z,98420.19
2022-10-25T05:23:53.543Z,98413.34
2022-10-25T05:26:23.818Z,98419.41
2022-10-25T05:28:55.340Z,98419.50
2022-10-25T05:31:26.073Z,98421.34
2022-10-25T05:33:56.881Z,98424.91
2022-10-25T05:36:26.276Z,98417.84
2022-10-25T05:38:56.234Z,98419.19
2022-10-25T05:41:24.569Z,98423.97
2022-10-25T05:43:52.979Z,98419.41
2022-10-25T05:46:23.282Z,98421.00
2022-10-25T05:48:53.611Z,98417.56
2022-10-25T05:51:34.786Z,98425.31
2022-10-25T05:54:08.740Z,98433.00
2022-10-25T05:56:38.249Z,98418.81
2022-10-25T05:59:09.703Z,98424.72
2022-10-25T06:01:40.303Z,98423.97
2022-10-25T06:04:09.938Z,98436.03
2022-10-25T06:06:40.329Z,98434.38
2022-10-25T06:09:10.513Z,98441.59
2022-10-25T06:11:40.162Z,98446.84
2022-10-25T06:14:10.422Z,98442.00
2022-10-25T06:16:39.172Z,98446.16
2022-10-25T06:19:07.705Z,98448.81
2022-10-25T06:21:36.778Z,98444.78
2022-10-25T06:24:05.811Z,98451.94
2022-10-25T06:26:35.625Z,98457.22
2022-10-25T06:29:05.776Z,98462.53
2022-10-25T06:31:34.758Z,98476.31
2022-10-25T06:34:04.336Z,98484.78
2022-10-25T06:36:32.738Z,98479.63
2022-10-25T06:39:05.213Z,98494.75
2022-10-25T06:41:37.955Z,98495.59
2022-10-25T06:44:07.616Z,98500.69
2022-10-25T06:49:27.547Z,98492.63
2022-10-25T06:51:55.948Z,98498.56
2022-10-25T06:54:25.460Z,98499.84
2022-10-25T06:56:55.198Z,98510.31
2022-10-25T06:59:23.629Z,98511.97
2022-10-25T07:01:52.532Z,98518.47
2022-10-25T07:04:20.983Z,98516.84
2022-10-25T07:06:51.549Z,98517.25
2022-10-25T07:09:23.468Z,98518.59
2022-10-25T07:11:51.732Z,98526.19
2022-10-25T07:14:21.488Z,98524.44
2022-10-25T07:16:49.906Z,98528.47
2022-10-25T07:19:18.220Z,98523.41
2022-10-25T07:21:46.692Z,98518.19
2022-10-25T07:24:15.201Z,98520.69
2022-10-25T07:26:44.041Z,98531.66
2022-10-25T07:29:12.313Z,98521.22
2022-10-25T07:31:45.210Z,98530.75
2022-10-25T07:34:15.388Z,98536.47
2022-10-25T07:36:43.867Z,98537.78
2022-10-25T07:39:12.276Z,98520.59
2022-10-25T07:41:40.648Z,98528.97
2022-10-25T07:44:14.516Z,98529.97
2022-10-25T07:46:46.000Z,98532.31
2022-10-25T07:49:14.873Z,98542.81
2022-10-25T07:51:43.299Z,98533.25
2022-10-25T07:54:11.516Z,98537.59
2022-10-25T07:56:39.921Z,98535.56
2022-10-25T07:59:08.365Z,98533.66
2022-10-25T08:01:37.096Z,98533.19
2022-10-25T08:04:06.946Z,98531.88
2022-10-25T08:06:36.073Z,98540.63
2022-10-25T08:09:14.331Z,98528.88
2022-10-25T08:11:43.584Z,98523.44
2022-10-25T08:14:11.898Z,98524.16
2022-10-25T08:16:40.338Z,98525.00
2022-10-25T08:19:10.135Z,98528.84
2022-10-25T08:21:38.801Z,98524.41
2022-10-25T08:24:08.046Z,98528.16
2022-10-25T08:26:37.141Z,98530.34
2022-10-25T08:29:05.773Z,98533.84
2022-10-25T08:31:34.035Z,98538.84
2022-10-25T08:34:02.481Z,98538.00
2022-10-25T08:36:32.262Z,98531.81
2022-10-25T08:39:00.970Z,98534.31
2022-10-25T08:41:41.784Z,98535.91
2022-10-25T08:44:24.070Z,98537.50
2022-10-25T08:46:58.464Z,98534.06
2022-10-25T08:49:35.732Z,98544.34
2022-10-25T08:52:08.266Z,98544.19
2022-10-25T08:54:40.617Z,98538.13
2022-10-25T08:57:24.241Z,98543.81
2022-10-25T08:59:55.566Z,98543.63
2022-10-25T09:02:34.628Z,98541.44
2022-10-25T09:05:03.516Z,98543.31
2022-10-25T09:07:53.057Z,98546.63
2022-10-25T09:10:35.675Z,98542.94
2022-10-25T09:13:12.919Z,98549.16
2022-10-25T09:15:54.883Z,98552.97
2022-10-25T09:18:33.722Z,98546.00
2022-10-25T09:21:15.586Z,98544.09
2022-10-25T09:23:58.846Z,98557.97
2022-10-25T09:26:42.273Z,98554.63
2022-10-25T09:29:19.910Z,98557.69
2022-10-25T09:31:55.121Z,98548.53
2022-10-25T09:34:24.637Z,98543.84
2022-10-25T09:37:00.472Z,98542.47
2022-10-25T09:39:38.483Z,98545.56
2022-10-25T09:42:16.111Z,98542.13
2022-10-25T09:44:48.893Z,98546.94
2022-10-25T09:47:31.123Z,98550.28
2022-10-25T09:50:02.942Z,98553.72
2022-10-25T09:52:39.559Z,98553.81
2022-10-25T09:55:32.913Z,98545.56
2022-10-25T09:58:02.232Z,98537.31
2022-10-25T10:00:31.113Z,98538.50
2022-10-25T10:02:59.527Z,98536.09
2022-10-25T10:05:28.056Z,98536.56
2022-10-25T10:07:56.457Z,98545.25
2022-10-25T10:10:30.589Z,98535.75
2022-10-25T10:13:03.416Z,98542.38
2022-10-25T10:15:38.603Z,98540.56
2022-10-25T10:18:29.238Z,98546.41
2022-10-25T10:21:05.907Z,98535.34
2022-10-25T10:23:39.098Z,98528.91
2022-10-25T10:26:18.508Z,98532.94
2022-10-25T10:28:49.730Z,98540.34
2022-10-25T10:31:19.134Z,98530.34
2022-10-25T10:33:52.043Z,98523.91
2022-10-25T10:36:29.625Z,98519.84
2022-10-25T10:39:22.222Z,98524.78
2022-10-25T10:42:03.398Z,98521.53
2022-10-25T10:44:34.830Z,98515.22
2022-10-25T10:47:11.531Z,98518.47
2022-10-25T10:49:42.508Z,98500.38
2022-10-25T10:52:30.594Z,98500.16
2022-10-25T10:55:01.075Z,98494.75
2022-10-25T10:57:33.650Z,98497.84
2022-10-25T11:00:02.865Z,98501.78
2022-10-25T11:02:41.487Z,98498.88
2022-10-25T11:05:25.631Z,98493.44
2022-10-25T11:07:57.362Z,98497.75
2022-10-25T11:10:32.093Z,98491.88
2022-10-25T11:13:14.355Z,98481.25
2022-10-25T11:16:21.939Z,98479.81
2022-10-25T11:19:08.966Z,98476.44
2022-10-25T11:22:14.525Z,98480.78
2022-10-25T11:24:56.694Z,98468.53
2022-10-25T11:27:39.169Z,98479.50
2022-10-25T11:30:15.064Z,98481.63
2022-10-25T11:33:42.942Z,98473.44
2022-10-25T11:36:27.756Z,98470.63
2022-10-25T11:39:09.728Z,98466.69
2022-10-25T11:41:46.120Z,98467.03
2022-10-25T11:44:49.947Z,98468.69
2022-10-25T11:47:34.257Z,98474.50
2022-10-25T11:50:19.784Z,98472.91
2022-10-25T11:53:23.169Z,98468.09
2022-10-25T11:55:56.973Z,98469.75
2022-10-25T11:58:47.045Z,98467.91
2022-10-25T12:01:34.291Z,98486.06
2022-10-25T12:04:29.495Z,98481.28
2022-10-25T12:07:06.933Z,98476.19
2022-10-25T12:09:46.596Z,98474.19
2022-10-25T12:12:40.852Z,98467.41
2022-10-25T12:15:20.423Z,98467.31
2022-10-25T12:17:49.800Z,98474.63
2022-10-25T12:20:25.907Z,98481.28
2022-10-25T12:22:58.643Z,98467.97
2022-10-25T12:25:31.800Z,98466.78
2022-10-25T12:28:07.550Z,98475.78
2022-10-25T12:30:36.705Z,98473.44
2022-10-25T12:33:16.666Z,98471.06
2022-10-25T12:35:52.048Z,98466.06
2022-10-25T12:38:28.886Z,98466.88
2022-10-25T12:41:03.486Z,98465.09
2022-10-25T12:43:38.290Z,98459.53
2022-10-25T12:46:44.189Z,98456.59
2022-10-25T12:49:37.350Z,98465.88
2022-10-25T12:52:24.852Z,98458.06
2022-10-25T12:55:38.767Z,98461.72
2022-10-25T12:58:32.469Z,98453.53
2022-10-25T13:01:15.004Z,98453.03
2022-10-25T13:04:06.883Z,98452.06
2022-10-25T13:06:36.866Z,98448.63
2022-10-25T13:09:11.189Z,98449.44
2022-10-25T13:11:43.710Z,98441.16
2022-10-25T13:14:25.155Z,98436.53
2022-10-25T13:16:53.596Z,98444.72
2022-10-25T13:19:49.762Z,98438.78
2022-10-25T13:22:37.427Z,98450.69
2022-10-25T13:25:19.563Z,98453.53
2022-10-25T13:28:33.973Z,98454.38
2022-10-25T13:31:49.490Z,98447.72
2022-10-25T13:34:48.111Z,98448.69
2022-10-25T13:37:42.029Z,98449.75
2022-10-25T13:40:25.403Z,98440.72
2022-10-25T13:43:05.827Z,98445.34
2022-10-25T13:45:43.001Z,98435.69
2022-10-25T13:48:26.742Z,98445.91
2022-10-25T13:50:57.055Z,98443.28
2022-10-25T13:53:31.083Z,98439.63
2022-10-25T13:56:07.549Z,98441.16
2022-10-25T13:58:45.196Z,98441.50
2022-10-25T14:01:56.560Z,98438.94
2022-10-25T14:04:39.087Z,98430.00
2022-10-25T14:07:48.564Z,98428.56
2022-10-25T14:10:28.427Z,98427.03
2022-10-25T14:13:12.070Z,98418.34
2022-10-25T14:15:50.341Z,98416.34
2022-10-25T14:18:22.852Z,98423.25
2022-10-25T14:20:56.630Z,98421.41
2022-10-25T14:23:29.850Z,98428.81
2022-10-25T14:26:00.339Z,98421.88
2022-10-25T14:28:32.038Z,98422.88
2022-10-25T14:31:02.201Z,98408.72
2022-10-25T14:33:33.821Z,98412.97
2022-10-25T14:36:12.248Z,98410.59
2022-10-25T14:38:53.069Z,98406.41
2022-10-25T14:41:25.248Z,98407.69
2022-10-25T14:43:55.876Z,98401.75
2022-10-25T14:46:26.304Z,98405.03
2022-10-25T14:48:57.264Z,98412.03
2022-10-25T14:51:28.589Z,98406.59
2022-10-25T14:54:01.772Z,98406.50
2022-10-25T14:56:34.376Z,98393.16
2022-10-25T14:59:06.316Z,98393.16
2022-10-25T15:01:35.920Z,98394.56
2022-10-25T15:04:04.857Z,98400.38
2022-10-25T15:06:33.702Z,98394.34
2022-10-25T15:12:18.396Z,98395.81
2022-10-25T15:14:48.620Z,98397.44
2022-10-25T15:17:25.549Z,98395.34
2022-10-25T15:20:05.113Z,98399.31
2022-10-25T15:22:43.858Z,98397.13
2022-10-25T15:25:28.380Z,98390.19
2022-10-25T15:27:56.769Z,98390.75
2022-10-25T15:30:37.745Z,98391.41
2022-10-25T15:33:12.844Z,98390.16
2022-10-25T15:35:49.523Z,98383.25
2022-10-25T15:38:19.192Z,98390.91
2022-10-25T15:40:48.464Z,98388.97
2022-10-25T15:43:17.120Z,98386.69
2022-10-25T15:45:47.160Z,98379.63
2022-10-25T15:48:20.412Z,98386.59
2022-10-25T15:50:52.880Z,98381.59
2022-10-25T15:53:21.520Z,98375.22
2022-10-25T15:55:50.774Z,98387.88
2022-10-25T15:58:19.638Z,98386.97
2022-10-25T16:00:52.125Z,98387.78
2022-10-25T16:03:24.128Z,98393.66
2022-10-25T16:05:53.286Z,98398.44
2022-10-25T16:08:21.663Z,98394.09
2022-10-25T16:10:50.117Z,98398.28
2022-10-25T16:13:28.266Z,98398.59
2022-10-25T16:15:57.940Z,98394.13
2022-10-25T16:18:26.818Z,98385.69
2022-10-25T16:20:57.785Z,98386.56
2022-10-25T16:23:26.490Z,98392.13
2022-10-25T16:25:56.310Z,98379.81
2022-10-25T16:30:54.109Z,98384.22
2022-10-25T16:33:23.799Z,98388.72
2022-10-25T16:35:52.214Z,98388.38
2022-10-25T16:38:20.448Z,98373.91
2022-10-25T16:40:48.984Z,98383.53
2022-10-25T16:43:17.221Z,98377.16
2022-10-25T16:45:45.730Z,98392.56
2022-10-25T16:48:14.097Z,98381.06
2022-10-25T16:50:43.935Z,98384.88
2022-10-25T16:53:14.823Z,98380.38
2022-10-25T16:55:43.213Z,98378.97
2022-10-25T16:58:12.029Z,98378.59
2022-10-25T17:00:40.518Z,98377.88
2022-10-25T17:03:10.346Z,98374.56
2022-10-25T17:05:39.754Z,98378.53
2022-10-25T17:08:09.559Z,98379.94
2022-10-25T17:10:42.408Z,98384.47
2022-10-25T17:13:16.029Z,98385.88
2022-10-25T17:15:44.540Z,98376.63
2022-10-25T17:18:15.958Z,98370.91
2022-10-25T17:20:44.562Z,98374.47
2022-10-25T17:23:14.493Z,98369.38
2022-10-25T17:25:43.211Z,98367.34
2022-10-25T17:28:11.711Z,98368.75
2022-10-25T17:30:43.085Z,98368.47
2022-10-25T17:33:11.453Z,98368.91
2022-10-25T17:35:42.602Z,98367.88
2022-10-25T17:38:10.956Z,98361.91
2022-10-25T17:40:41.025Z,98366.53
2022-10-25T17:43:09.397Z,98370.50
2022-10-25T17:45:37.658Z,98364.09
2022-10-25T17:48:06.846Z,98363.25
2022-10-25T17:50:40.858Z,98370.47
2022-10-25T17:53:10.402Z,98371.72
2022-10-25T17:55:41.194Z,98365.19
2022-10-25T17:58:09.575Z,98368.09
2022-10-25T18:00:37.892Z,98361.78
2022-10-25T18:03:06.222Z,98370.44
2022-10-25T18:05:34.516Z,98369.81
2022-10-25T18:08:02.760Z,98364.22
2022-10-25T18:10:34.144Z,98370.97
2022-10-25T18:13:03.727Z,98368.84
2022-10-25T18:15:33.387Z,98374.38
2022-10-25T18:18:01.906Z,98376.25
2022-10-25T18:20:30.148Z,98375.75
2022-10-25T18:22:58.386Z,98376.16
2022-10-25T18:25:26.971Z,98372.00
2022-10-25T18:27:55.338Z,98375.84
2022-10-25T18:30:24.957Z,98374.28
2022-10-25T18:32:53.612Z,98370.25
2022-10-25T18:35:22.217Z,98375.56
2022-10-25T18:37:50.788Z,98372.75
2022-10-25T18:40:19.477Z,98383.34
2022-10-25T18:42:47.731Z,98380.78
2022-10-25T18:45:16.229Z,98380.16
2022-10-25T18:47:50.136Z,98377.88
2022-10-25T18:50:18.611Z,98379.41
2022-10-25T18:52:47.045Z,98375.16
2022-10-25T18:55:15.685Z,98373.50
2022-10-25T18:57:44.030Z,98370.91
2022-10-25T19:00:14.734Z,98366.63
2022-10-25T19:02:43.199Z,98362.88
2022-10-25T19:05:13.001Z,98362.25
2022-10-25T19:07:41.351Z,98366.75
2022-10-25T19:10:10.304Z,98352.28
2022-10-25T19:12:38.735Z,98356.56
2022-10-25T19:15:08.588Z,98347.38
2022-10-25T19:17:36.926Z,98348.22
2022-10-25T19:20:07.501Z,98354.56
2022-10-25T19:22:37.186Z,98354.75
2022-10-25T19:25:06.605Z,98357.75
2022-10-25T19:27:34.988Z,98353.50
2022-10-25T19:30:03.369Z,98348.50
2022-10-25T19:32:32.037Z,98346.66
2022-10-25T19:35:00.317Z,98340.72
2022-10-25T19:37:28.712Z,98341.44
2022-10-25T19:39:59.068Z,98344.25
2022-10-25T19:42:27.577Z,98344.44
2022-10-25T19:44:55.874Z,98352.03
2022-10-25T19:47:24.436Z,98351.59
2022-10-25T19:49:52.659Z,98348.38
2022-10-25T19:52:21.266Z,98351.91
2022-10-25T19:54:50.705Z,98358.88
2022-10-25T19:57:20.960Z,98349.63
2022-10-25T19:59:49.815Z,98353.03
2022-10-25T20:02:18.660Z,98344.50
2022-10-25T20:04:47.601Z,98339.63
2022-10-25T20:07:16.418Z,98333.28
2022-10-25T20:09:44.766Z,98333.66
2022-10-25T20:12:13.084Z,98335.72
2022-10-25T20:14:42.917Z,98327.13
2022-10-25T20:17:12.442Z,98328.03
2022-10-25T20:19:40.709Z,98332.59
2022-10-25T20:22:09.005Z,98327.41
2022-10-25T20:24:37.383Z,98332.69
2022-10-25T20:27:06.585Z,98332.50
2022-10-25T20:29:34.982Z,98337.16
2022-10-25T20:32:04.712Z,98341.72
2022-10-25T20:34:35.102Z,98335.25
2022-10-25T20:37:04.108Z,98331.00
2022-10-25T20:39:32.488Z,98331.19
2022-10-25T20:42:01.123Z,98329.63
2022-10-25T20:44:29.364Z,98319.06
2022-10-25T20:46:57.608Z,98326.00
2022-10-25T20:49:27.260Z,98332.31
2022-10-25T20:51:55.494Z,98326.31
2022-10-25T20:54:23.796Z,98317.78
2022-10-25T20:56:52.097Z,98310.94
2022-10-25T20:59:20.342Z,98314.66
2022-10-25T21:01:48.721Z,98325.03
2022-10-25T21:04:25.879Z,98320.22
2022-10-25T21:07:05.863Z,98322.09
2022-10-25T21:09:34.120Z,98315.44
2022-10-25T21:12:02.324Z,98311.97
2022-10-25T21:14:30.612Z,98312.19
2022-10-25T21:16:58.877Z,98308.94
2022-10-25T21:19:27.234Z,98297.94
2022-10-25T21:21:55.653Z,98302.47
2022-10-25T21:24:25.355Z,98305.13
2022-10-25T21:26:54.546Z,98301.00
2022-10-25T21:29:22.910Z,98308.03
2022-10-25T21:31:51.148Z,98305.25
2022-10-25T21:34:19.404Z,98313.38
2022-10-25T21:36:48.031Z,98315.97
2022-10-25T21:39:20.548Z,98306.00
2022-10-25T21:41:50.319Z,98300.19
2022-10-25T21:44:19.263Z,98301.94
2022-10-25T21:46:47.607Z,98297.59
2022-10-25T21:49:15.962Z,98301.19
2022-10-25T21:51:44.435Z,98302.78
2022-10-25T21:54:13.281Z,98301.94
2022-10-25T21:56:41.673Z,98293.34
2022-10-25T21:59:11.263Z,98276.03
2022-10-25T22:01:39.772Z,98273.44
2022-10-25T22:04:08.094Z,98257.91
2022-10-25T22:06:36.686Z,98263.06
2022-10-25T22:09:06.115Z,98271.69
2022-10-25T22:11:36.978Z,98249.28
2022-10-25T22:14:11.834Z,98266.78
2022-10-25T22:16:40.654Z,98287.59
2022-10-25T22:19:14.204Z,98289.28
2022-10-25T22:21:42.861Z,98289.34
2022-10-25T22:24:12.924Z,98288.63
2022-10-25T22:26:44.662Z,98291.94
2022-10-25T22:29:15.424Z,98305.72
2022-10-25T22:31:43.707Z,98293.63
2022-10-25T22:34:12.231Z,98285.94
2022-10-25T22:36:42.765Z,98285.13
2022-10-25T22:39:11.424Z,98278.28
2022-10-25T22:41:39.774Z,98275.75
2022-10-25T22:44:08.150Z,98272.34
2022-10-25T22:46:38.108Z,98270.69
2022-10-25T22:49:09.546Z,98263.84
2022-10-25T22:51:39.330Z,98261.25
2022-10-25T22:54:08.350Z,98256.91
2022-10-25T22:56:36.922Z,98267.25
2022-10-25T22:59:07.290Z,98270.78
2022-10-25T23:01:38.605Z,98271.63
2022-10-25T23:04:09.193Z,98276.81
2022-10-25T23:06:40.234Z,98268.09
2022-10-25T23:09:10.400Z,98259.56
2022-10-25T23:11:41.344Z,98251.78
2022-10-25T23:14:14.713Z,98230.16
2022-10-25T23:16:47.462Z,98232.75
2022-10-25T23:19:16.018Z,98246.53
2022-10-25T23:21:44.353Z,98249.41
2022-10-25T23:24:12.701Z,98246.09
2022-10-25T23:26:41.159Z,98252.28
2022-10-25T23:29:12.065Z,98265.34
2022-10-25T23:31:40.284Z,98261.81
2022-10-25T23:34:11.230Z,98265.50
2022-10-25T23:36:39.456Z,98263.84
2022-10-25T23:39:09.349Z,98259.69
2022-10-25T23:41:37.647Z,98255.34
2022-10-25T23:44:06.190Z,98256.19
2022-10-25T23:46:35.574Z,98250.16
2022-10-25T23:49:04.048Z,98252.75
2022-10-25T23:51:33.628Z,98251.00
2022-10-25T23:54:01.846Z,98243.13
2022-10-25T23:56:30.191Z,98242.38
2022-10-25T23:58:58.425Z,98251.84
